EBH weather

El Bayadh Airport
El Bayadh, El Bayadh Province, Algeria

Public forecast

Using degrees Celsius for public forecast. Weather courtesy of forecast.io.

METAR (pilot weather report)

Retrieved 2019/07/23 00:00 UTC (41 minutes ago):

DAOY 230000Z 16006KT 9999 SCT030 20/14 Q1024

TAF (pilot weather forecast)

Forecast is more than 12 hours old.

Retrieved 2019/05/21 00:00 UTC (2 months ago):

TAF DAOY 202300Z 2100/2124 18010KT 9999 BKN026 BECMG 2101/2103 VRB02KT PROB30 TEMPO 2104/2107 4000 BR SCT015